createdAt,value
2022-10-12T00:00:19.722Z,8.01
2022-10-12T00:02:48.502Z,7.87
2022-10-12T00:05:16.037Z,7.97
2022-10-12T00:07:43.525Z,7.94
2022-10-12T00:10:10.997Z,7.93
2022-10-12T00:12:38.851Z,7.88
2022-10-12T00:15:07.064Z,7.85
2022-10-12T00:17:34.668Z,7.87
2022-10-12T00:20:03.803Z,7.90
2022-10-12T00:22:31.283Z,7.84
2022-10-12T00:24:58.741Z,7.85
2022-10-12T00:27:26.220Z,7.89
2022-10-12T00:29:53.737Z,7.85
2022-10-12T00:32:21.586Z,7.84
2022-10-12T00:34:49.054Z,7.85
2022-10-12T00:37:17.905Z,7.83
2022-10-12T00:39:45.779Z,7.80
2022-10-12T00:42:13.374Z,7.75
2022-10-12T00:44:43.701Z,7.81
2022-10-12T00:47:18.581Z,7.83
2022-10-12T00:49:48.681Z,7.72
2022-10-12T00:52:18.801Z,7.71
2022-10-12T00:54:48.251Z,7.72
2022-10-12T00:57:17.216Z,7.73
2022-10-12T00:59:47.341Z,7.72
2022-10-12T01:02:14.932Z,7.69
2022-10-12T01:04:42.516Z,7.56
2022-10-12T01:07:10.083Z,7.60
2022-10-12T01:09:39.120Z,7.55
2022-10-12T01:12:08.393Z,7.64
2022-10-12T01:14:36.565Z,7.64
2022-10-12T01:17:10.673Z,7.60
2022-10-12T01:20:14.595Z,7.61
2022-10-12T01:22:46.712Z,7.57
2022-10-12T01:25:26.217Z,7.58
2022-10-12T01:27:55.450Z,7.51
2022-10-12T01:30:25.265Z,7.52
2022-10-12T01:33:07.993Z,7.49
2022-10-12T01:35:40.697Z,7.53
2022-10-12T01:38:14.170Z,7.57
2022-10-12T01:40:47.048Z,7.55
2022-10-12T01:43:18.039Z,7.57
2022-10-12T01:45:46.906Z,7.57
2022-10-12T01:48:14.476Z,7.60
2022-10-12T01:50:49.660Z,7.55
2022-10-12T01:53:23.846Z,7.51
2022-10-12T01:55:55.574Z,7.51
2022-10-12T01:58:33.595Z,7.52
2022-10-12T02:01:09.054Z,7.41
2022-10-12T02:03:41.350Z,7.40
2022-10-12T02:06:11.022Z,7.37
2022-10-12T02:08:42.368Z,7.36
2022-10-12T02:11:12.353Z,7.32
2022-10-12T02:13:41.384Z,7.36
2022-10-12T02:16:12.117Z,7.39
2022-10-12T02:18:41.379Z,7.39
2022-10-12T02:21:09.558Z,7.40
2022-10-12T02:23:37.676Z,7.35
2022-10-12T02:26:06.309Z,7.31
2022-10-12T02:28:35.769Z,7.29
2022-10-12T02:31:08.634Z,7.12
2022-10-12T02:33:41.018Z,7.21
2022-10-12T02:36:12.625Z,7.25
2022-10-12T02:38:43.715Z,7.22
2022-10-12T02:41:14.929Z,7.27
2022-10-12T02:43:44.819Z,7.24
2022-10-12T02:46:12.520Z,7.18
2022-10-12T02:48:41.685Z,7.07
2022-10-12T02:51:10.526Z,7.02
2022-10-12T02:53:38.416Z,6.96
2022-10-12T02:56:08.689Z,6.92
2022-10-12T02:58:36.185Z,6.91
2022-10-12T03:01:03.753Z,6.87
2022-10-12T03:03:31.296Z,6.82
2022-10-12T03:06:00.143Z,6.82
2022-10-12T03:08:27.607Z,6.83
2022-10-12T03:10:55.081Z,6.83
2022-10-12T03:13:22.547Z,6.79
2022-10-12T03:15:49.986Z,6.80
2022-10-12T03:18:17.450Z,6.89
2022-10-12T03:20:48.797Z,6.93
2022-10-12T03:23:17.617Z,6.88
2022-10-12T03:25:45.082Z,6.87
2022-10-12T03:28:12.625Z,6.77
2022-10-12T03:30:40.123Z,6.70
2022-10-12T03:33:07.591Z,6.65
2022-10-12T03:35:35.069Z,6.56
2022-10-12T03:38:02.523Z,6.54
2022-10-12T03:40:31.380Z,6.55
2022-10-12T03:42:58.829Z,6.54
2022-10-12T03:45:26.261Z,6.51
2022-10-12T03:47:53.737Z,6.57
2022-10-12T03:50:21.193Z,6.63
2022-10-12T03:52:48.775Z,6.61
2022-10-12T03:55:16.618Z,6.63
2022-10-12T03:57:45.666Z,6.58
2022-10-12T04:00:14.602Z,6.60
2022-10-12T04:02:42.269Z,6.65
2022-10-12T04:05:10.239Z,6.68
2022-10-12T04:07:38.210Z,6.61
2022-10-12T04:10:07.195Z,6.59
2022-10-12T04:12:34.728Z,6.63
2022-10-12T04:15:03.559Z,6.63
2022-10-12T04:17:31.053Z,6.75
2022-10-12T04:19:58.535Z,6.71
2022-10-12T04:22:26.132Z,6.70
2022-10-12T04:24:53.599Z,6.73
2022-10-12T04:27:21.239Z,6.74
2022-10-12T04:29:48.720Z,6.75
2022-10-12T04:32:17.533Z,6.65
2022-10-12T04:34:44.994Z,6.65
2022-10-12T04:37:12.466Z,6.70
2022-10-12T04:39:39.924Z,6.70
2022-10-12T04:42:07.810Z,6.66
2022-10-12T04:44:35.531Z,6.62
2022-10-12T04:47:03.422Z,6.56
2022-10-12T04:49:32.304Z,6.46
2022-10-12T04:51:59.949Z,6.50
2022-10-12T04:54:27.425Z,6.49
2022-10-12T04:56:54.888Z,6.45
2022-10-12T04:59:22.365Z,6.48
2022-10-12T05:01:49.891Z,6.44
2022-10-12T05:04:17.404Z,6.41
2022-10-12T05:06:46.186Z,6.36
2022-10-12T05:09:23.070Z,6.40
2022-10-12T05:11:50.530Z,6.37
2022-10-12T05:14:17.993Z,6.37
2022-10-12T05:16:45.620Z,6.37
2022-10-12T05:19:13.076Z,6.31
2022-10-12T05:21:40.671Z,6.26
2022-10-12T05:24:09.560Z,6.16
2022-10-12T05:26:37.097Z,6.25
2022-10-12T05:29:04.778Z,6.35
2022-10-12T05:31:32.253Z,6.32
2022-10-12T05:33:59.726Z,6.29
2022-10-12T05:36:27.152Z,6.30
2022-10-12T05:38:54.660Z,6.16
2022-10-12T05:41:33.627Z,6.21
2022-10-12T05:44:01.093Z,6.17
2022-10-12T05:46:28.547Z,6.15
2022-10-12T05:48:56.014Z,6.14
2022-10-12T05:51:28.609Z,6.14
2022-10-12T05:53:56.452Z,6.14
2022-10-12T05:56:25.231Z,6.18
2022-10-12T05:58:52.699Z,6.18
2022-10-12T06:01:20.154Z,6.28
2022-10-12T06:03:47.630Z,6.31
2022-10-12T06:06:15.096Z,6.28
2022-10-12T06:08:42.751Z,6.34
2022-10-12T06:11:10.235Z,6.32
2022-10-12T06:13:39.049Z,6.36
2022-10-12T06:16:07.026Z,6.36
2022-10-12T06:18:34.526Z,6.32
2022-10-12T06:21:31.982Z,6.32
2022-10-12T06:23:49.420Z,6.37
2022-10-12T06:26:17.357Z,6.40
2022-10-12T06:28:46.246Z,6.41
2022-10-12T06:31:15.063Z,6.40
2022-10-12T06:33:42.584Z,6.41
2022-10-12T06:36:10.047Z,6.50
2022-10-12T06:38:37.571Z,6.45
2022-10-12T06:41:07.814Z,6.52
2022-10-12T06:43:35.335Z,6.54
2022-10-12T06:46:04.544Z,6.52
2022-10-12T06:48:32.137Z,6.53
2022-10-12T06:50:59.624Z,6.58
2022-10-12T06:53:28.746Z,6.59
2022-10-12T06:55:56.387Z,6.62
2022-10-12T06:58:23.865Z,6.64
2022-10-12T07:00:51.546Z,6.83
2022-10-12T07:03:20.390Z,6.92
2022-10-12T07:05:47.868Z,6.90
2022-10-12T07:08:15.349Z,6.90
2022-10-12T07:10:42.854Z,6.95
2022-10-12T07:13:10.320Z,6.95
2022-10-12T07:15:37.814Z,6.99
2022-10-12T07:18:05.371Z,7.05
2022-10-12T07:20:34.190Z,7.04
2022-10-12T07:23:01.656Z,7.03
2022-10-12T07:25:29.169Z,7.06
2022-10-12T07:27:56.676Z,7.12
2022-10-12T07:30:24.127Z,7.13
2022-10-12T07:32:51.628Z,7.18
2022-10-12T07:35:19.130Z,7.22
2022-10-12T07:37:49.497Z,7.35
2022-10-12T07:40:17.071Z,7.43
2022-10-12T07:43:05.409Z,7.48
2022-10-12T07:45:31.990Z,7.56
2022-10-12T07:47:59.533Z,7.62
2022-10-12T07:50:27.119Z,7.67
2022-10-12T07:52:55.975Z,7.68
2022-10-12T07:55:23.455Z,7.79
2022-10-12T07:57:50.997Z,7.86
2022-10-12T08:00:21.000Z,7.99
2022-10-12T08:02:48.456Z,8.10
2022-10-12T08:05:16.053Z,8.24
2022-10-12T08:07:43.521Z,8.28
2022-10-12T08:10:12.497Z,8.33
2022-10-12T08:12:39.943Z,8.35
2022-10-12T08:15:08.280Z,8.45
2022-10-12T08:17:35.816Z,8.51
2022-10-12T08:20:03.635Z,8.59
2022-10-12T08:22:31.103Z,8.70
2022-10-12T08:24:58.587Z,8.81
2022-10-12T08:27:30.888Z,8.87
2022-10-12T08:29:58.413Z,8.98
2022-10-12T08:32:25.957Z,9.05
2022-10-12T08:34:53.484Z,9.09
2022-10-12T08:37:20.966Z,9.11
2022-10-12T08:39:48.475Z,9.20
2022-10-12T08:42:26.164Z,9.28
2022-10-12T08:45:02.721Z,9.27
2022-10-12T08:47:35.781Z,9.49
2022-10-12T08:50:04.371Z,9.57
2022-10-12T08:52:34.787Z,9.60
2022-10-12T08:55:06.381Z,9.65
2022-10-12T08:57:35.309Z,9.74
2022-10-12T09:00:04.983Z,9.79
2022-10-12T09:02:50.779Z,9.85
2022-10-12T09:05:22.455Z,9.91
2022-10-12T09:07:56.491Z,10.01
2022-10-12T09:10:34.117Z,10.01
2022-10-12T09:13:08.621Z,10.01
2022-10-12T09:15:40.393Z,10.11
2022-10-12T09:18:17.148Z,10.20
2022-10-12T09:20:47.788Z,10.29
2022-10-12T09:23:24.360Z,10.31
2022-10-12T09:25:52.127Z,10.37
2022-10-12T09:28:24.239Z,10.50
2022-10-12T09:31:02.828Z,10.64
2022-10-12T09:33:33.373Z,10.77
2022-10-12T09:36:00.941Z,10.85
2022-10-12T09:38:28.404Z,10.93
2022-10-12T09:40:55.879Z,11.04
2022-10-12T09:43:23.381Z,11.00
2022-10-12T09:45:50.991Z,11.15
2022-10-12T09:48:21.685Z,11.30
2022-10-12T09:50:51.873Z,11.37
2022-10-12T09:53:23.431Z,11.43
2022-10-12T09:55:55.775Z,11.51
2022-10-12T09:58:23.632Z,11.63
2022-10-12T10:01:16.457Z,11.80
2022-10-12T10:03:45.744Z,11.78
2022-10-12T10:06:15.192Z,11.87
2022-10-12T10:08:44.328Z,11.96
2022-10-12T10:11:17.366Z,12.09
2022-10-12T10:13:48.816Z,12.17
2022-10-12T10:16:16.900Z,12.09
2022-10-12T10:18:48.836Z,12.12
2022-10-12T10:21:18.001Z,12.21
2022-10-12T10:23:51.664Z,12.45
2022-10-12T10:26:20.976Z,12.59
2022-10-12T10:28:50.061Z,12.64
2022-10-12T10:31:21.866Z,12.84
2022-10-12T10:34:21.636Z,12.76
2022-10-12T10:36:51.411Z,12.93
2022-10-12T10:39:21.636Z,12.99
2022-10-12T10:41:49.701Z,13.03
2022-10-12T10:44:24.859Z,13.01
2022-10-12T10:46:53.239Z,13.12
2022-10-12T10:49:29.620Z,13.18
2022-10-12T10:51:58.908Z,13.18
2022-10-12T10:54:28.919Z,13.30
2022-10-12T10:57:00.852Z,13.36
2022-10-12T10:59:37.560Z,13.46
2022-10-12T11:02:20.884Z,13.65
2022-10-12T11:04:52.802Z,13.77
2022-10-12T11:07:24.836Z,13.72
2022-10-12T11:09:55.085Z,13.87
2022-10-12T11:12:31.075Z,13.82
2022-10-12T11:15:05.873Z,13.79
2022-10-12T11:17:35.053Z,13.85
2022-10-12T11:20:17.233Z,14.10
2022-10-12T11:22:49.772Z,14.17
2022-10-12T11:25:22.625Z,14.31
2022-10-12T11:27:53.744Z,14.34
2022-10-12T11:30:22.792Z,14.45
2022-10-12T11:32:52.731Z,14.43
2022-10-12T11:35:27.728Z,14.55
2022-10-12T11:37:57.141Z,14.71
2022-10-12T11:40:55.737Z,14.73
2022-10-12T11:43:19.465Z,14.88
2022-10-12T11:45:49.844Z,14.85
2022-10-12T11:48:24.891Z,14.95
2022-10-12T11:50:58.949Z,15.09
2022-10-12T11:53:36.332Z,15.01
2022-10-12T11:56:09.337Z,14.99
2022-10-12T11:59:00.099Z,15.07
2022-10-12T12:01:44.876Z,15.29
2022-10-12T12:04:41.699Z,15.26
2022-10-12T12:07:53.213Z,15.28
2022-10-12T12:11:00.639Z,15.53
2022-10-12T12:13:30.148Z,15.52
2022-10-12T12:16:32.609Z,15.60
2022-10-12T12:19:18.511Z,15.51
2022-10-12T12:22:26.369Z,15.50
2022-10-12T12:25:16.691Z,15.70
2022-10-12T12:27:45.960Z,15.96
2022-10-12T12:30:39.086Z,15.99
2022-10-12T12:33:26.213Z,16.00
2022-10-12T12:35:55.754Z,16.07
2022-10-12T12:38:32.084Z,16.23
2022-10-12T12:41:09.041Z,16.34
2022-10-12T12:43:56.076Z,16.23
2022-10-12T12:46:27.044Z,16.30
2022-10-12T12:49:00.146Z,16.35
2022-10-12T12:51:37.610Z,16.48
2022-10-12T12:54:08.354Z,16.69
2022-10-12T12:56:42.153Z,16.82
2022-10-12T12:59:34.081Z,16.94
2022-10-12T13:02:19.622Z,16.94
2022-10-12T13:05:08.680Z,17.03
2022-10-12T13:07:48.964Z,17.10
2022-10-12T13:10:32.861Z,17.15
2022-10-12T13:13:12.413Z,17.22
2022-10-12T13:15:46.757Z,17.10
2022-10-12T13:18:52.463Z,17.33
2022-10-12T13:21:21.516Z,17.45
2022-10-12T13:23:51.330Z,17.51
2022-10-12T13:26:23.301Z,17.31
2022-10-12T13:28:51.552Z,17.12
2022-10-12T13:31:21.526Z,17.30
2022-10-12T13:33:58.260Z,17.39
2022-10-12T13:36:28.165Z,17.47
2022-10-12T13:38:56.865Z,17.27
2022-10-12T13:41:25.488Z,17.26
2022-10-12T13:43:54.959Z,17.26
2022-10-12T13:46:41.620Z,17.32
2022-10-12T13:49:18.846Z,17.28
2022-10-12T13:51:47.755Z,17.07
2022-10-12T13:54:17.036Z,17.08
2022-10-12T13:56:46.062Z,17.07
2022-10-12T13:59:19.105Z,17.15
2022-10-12T14:01:59.033Z,17.04
2022-10-12T14:04:31.100Z,17.16
2022-10-12T14:07:02.085Z,17.08
2022-10-12T14:09:37.558Z,16.97
2022-10-12T14:12:05.605Z,16.75
2022-10-12T14:14:35.066Z,16.66
2022-10-12T14:17:03.090Z,16.82
2022-10-12T14:19:42.633Z,16.70
2022-10-12T14:22:10.438Z,16.67
2022-10-12T14:24:38.357Z,16.80
2022-10-12T14:27:07.841Z,16.71
2022-10-12T14:29:37.856Z,16.72
2022-10-12T14:32:06.871Z,16.73
2022-10-12T14:34:43.889Z,16.75
2022-10-12T14:37:27.655Z,16.68
2022-10-12T14:40:00.245Z,16.67
2022-10-12T14:42:33.534Z,16.67
2022-10-12T14:45:01.616Z,16.72
2022-10-12T14:47:30.747Z,16.68
2022-10-12T14:50:00.809Z,16.77
2022-10-12T14:52:31.810Z,16.84
2022-10-12T14:55:00.041Z,16.85
2022-10-12T14:57:29.910Z,16.82
2022-10-12T14:59:57.842Z,16.68
2022-10-12T15:02:27.328Z,16.56
2022-10-12T15:04:56.235Z,16.56
2022-10-12T15:07:27.037Z,16.60
2022-10-12T15:09:54.740Z,16.64
2022-10-12T15:12:23.987Z,16.65
2022-10-12T15:14:51.824Z,16.49
2022-10-12T15:17:20.409Z,16.55
2022-10-12T15:19:49.320Z,16.59
2022-10-12T15:22:19.424Z,16.57
2022-10-12T15:24:48.663Z,16.53
2022-10-12T15:27:16.390Z,16.43
2022-10-12T15:29:44.269Z,16.38
2022-10-12T15:32:13.324Z,16.36
2022-10-12T15:34:40.812Z,16.36
2022-10-12T15:37:12.142Z,16.33
2022-10-12T15:39:39.883Z,16.32
2022-10-12T15:42:08.685Z,16.20
2022-10-12T15:44:40.414Z,16.21
2022-10-12T15:47:09.373Z,16.19
2022-10-12T15:49:36.809Z,16.17
2022-10-12T15:52:04.525Z,16.12
2022-10-12T15:54:32.052Z,16.02
2022-10-12T15:56:59.957Z,16.01
2022-10-12T15:59:29.060Z,15.96
2022-10-12T16:01:56.522Z,15.91
2022-10-12T16:04:23.960Z,15.83
2022-10-12T16:06:51.576Z,15.77
2022-10-12T16:09:19.178Z,15.71
2022-10-12T16:11:46.778Z,15.65
2022-10-12T16:14:15.750Z,15.56
2022-10-12T16:16:44.667Z,15.50
2022-10-12T16:19:12.402Z,15.39
2022-10-12T16:21:39.961Z,15.28
2022-10-12T16:24:07.774Z,15.24
2022-10-12T16:26:35.689Z,15.18
2022-10-12T16:29:03.244Z,15.10
2022-10-12T16:31:30.809Z,15.02
2022-10-12T16:34:00.027Z,14.96
2022-10-12T16:36:27.676Z,14.89
2022-10-12T16:38:55.338Z,14.78
2022-10-12T16:41:23.116Z,14.67
2022-10-12T16:43:50.849Z,14.57
2022-10-12T16:46:18.704Z,14.48
2022-10-12T16:48:46.251Z,14.42
2022-10-12T16:51:15.404Z,14.42
2022-10-12T16:53:43.915Z,14.37
2022-10-12T16:56:11.540Z,14.27
2022-10-12T16:58:39.030Z,14.21
2022-10-12T17:01:10.757Z,14.20
2022-10-12T17:03:38.288Z,14.12
2022-10-12T17:06:06.130Z,14.08
2022-10-12T17:08:36.047Z,14.02
2022-10-12T17:11:06.584Z,13.97
2022-10-12T17:13:36.776Z,13.74
2022-10-12T17:16:25.362Z,13.70
2022-10-12T17:18:58.170Z,13.58
2022-10-12T17:21:26.847Z,13.58
2022-10-12T17:23:58.023Z,13.50
2022-10-12T17:26:25.854Z,13.49
2022-10-12T17:28:53.449Z,13.47
2022-10-12T17:31:20.946Z,13.35
2022-10-12T17:33:49.034Z,13.31
2022-10-12T17:36:16.626Z,13.37
2022-10-12T17:38:44.393Z,13.36
2022-10-12T17:41:13.471Z,13.31
2022-10-12T17:43:41.217Z,13.24
2022-10-12T17:46:08.994Z,13.17
2022-10-12T17:48:36.538Z,13.10
2022-10-12T17:51:04.673Z,13.01
2022-10-12T17:53:33.163Z,12.91
2022-10-12T17:56:05.341Z,12.93
2022-10-12T17:58:36.249Z,12.90
2022-10-12T18:01:05.473Z,12.87
2022-10-12T18:03:33.203Z,12.86
2022-10-12T18:06:04.539Z,12.78
2022-10-12T18:08:32.232Z,12.69
2022-10-12T18:11:00.369Z,12.65
2022-10-12T18:13:28.559Z,12.65
2022-10-12T18:16:01.171Z,12.56
2022-10-12T18:18:30.478Z,12.43
2022-10-12T18:20:58.142Z,12.35
2022-10-12T18:23:25.806Z,12.34
2022-10-12T18:25:53.427Z,12.26
2022-10-12T18:28:21.249Z,12.13
2022-10-12T18:30:50.080Z,11.99
2022-10-12T18:33:19.043Z,11.98
2022-10-12T18:35:46.760Z,11.90
2022-10-12T18:38:14.367Z,11.85
2022-10-12T18:40:42.636Z,11.82
2022-10-12T18:43:10.810Z,11.72
2022-10-12T18:45:42.418Z,11.63
2022-10-12T18:48:10.334Z,11.66
2022-10-12T18:50:39.910Z,11.78
2022-10-12T18:53:07.911Z,11.64
2022-10-12T18:55:37.392Z,11.61
2022-10-12T18:58:05.326Z,11.64
2022-10-12T19:00:33.072Z,11.50
2022-10-12T19:03:00.654Z,11.50
2022-10-12T19:05:28.317Z,11.58
2022-10-12T19:07:57.214Z,11.48
2022-10-12T19:10:24.855Z,11.51
2022-10-12T19:12:52.362Z,11.36
2022-10-12T19:15:19.929Z,11.30
2022-10-12T19:17:47.468Z,11.25
2022-10-12T19:20:15.106Z,11.15
2022-10-12T19:22:42.705Z,11.10
2022-10-12T19:25:11.771Z,11.12
2022-10-12T19:27:39.304Z,11.10
2022-10-12T19:30:08.450Z,11.08
2022-10-12T19:32:36.035Z,11.08
2022-10-12T19:35:03.761Z,10.92
2022-10-12T19:37:31.366Z,10.92
2022-10-12T19:39:58.966Z,10.75
2022-10-12T19:42:27.842Z,10.59
2022-10-12T19:44:55.387Z,10.65
2022-10-12T19:47:23.285Z,10.79
2022-10-12T19:49:50.957Z,10.78
2022-10-12T19:52:18.989Z,10.68
2022-10-12T19:54:46.936Z,10.59
2022-10-12T19:57:16.305Z,10.66
2022-10-12T19:59:45.238Z,10.62
2022-10-12T20:02:12.874Z,10.64
2022-10-12T20:04:40.645Z,10.72
2022-10-12T20:07:08.246Z,10.66
2022-10-12T20:09:35.808Z,10.58
2022-10-12T20:12:03.392Z,10.56
2022-10-12T20:14:31.178Z,10.53
2022-10-12T20:17:00.131Z,10.56
2022-10-12T20:19:27.714Z,10.41
2022-10-12T20:21:55.270Z,10.19
2022-10-12T20:24:22.883Z,10.01
2022-10-12T20:26:50.432Z,10.04
2022-10-12T20:29:17.979Z,10.22
2022-10-12T20:31:45.636Z,10.31
2022-10-12T20:34:14.510Z,10.31
2022-10-12T20:36:42.269Z,10.25
2022-10-12T20:39:09.915Z,10.20
2022-10-12T20:41:40.103Z,10.43
2022-10-12T20:44:08.191Z,10.07
2022-10-12T20:46:35.763Z,9.88
2022-10-12T20:49:04.818Z,9.78
2022-10-12T20:51:35.780Z,9.81
2022-10-12T20:54:05.570Z,9.84
2022-10-12T20:56:34.211Z,9.72
2022-10-12T20:59:02.082Z,9.92
2022-10-12T21:01:30.694Z,9.89
2022-10-12T21:03:58.362Z,9.61
2022-10-12T21:06:26.020Z,9.58
2022-10-12T21:08:56.514Z,9.47
2022-10-12T21:11:24.593Z,9.58
2022-10-12T21:13:52.201Z,9.60
2022-10-12T21:16:20.436Z,9.67
2022-10-12T21:18:48.034Z,9.56
2022-10-12T21:21:17.092Z,9.52
2022-10-12T21:23:45.777Z,9.73
2022-10-12T21:26:16.344Z,9.71
2022-10-12T21:28:44.446Z,9.67
2022-10-12T21:31:12.852Z,9.64
2022-10-12T21:33:40.786Z,9.75
2022-10-12T21:36:10.028Z,9.79
2022-10-12T21:38:37.822Z,9.71
2022-10-12T21:41:05.632Z,9.98
2022-10-12T21:43:34.907Z,10.19
2022-10-12T21:46:04.210Z,10.16
2022-10-12T21:48:32.416Z,10.11
2022-10-12T21:51:00.401Z,9.84
2022-10-12T21:53:28.071Z,9.61
2022-10-12T21:55:55.727Z,9.52
2022-10-12T21:58:23.410Z,9.47
2022-10-12T22:00:52.401Z,9.15
2022-10-12T22:03:20.113Z,9.11
2022-10-12T22:05:47.653Z,9.28
2022-10-12T22:08:15.342Z,9.21
2022-10-12T22:10:43.064Z,9.05
2022-10-12T22:13:10.688Z,8.93
2022-10-12T22:15:38.302Z,8.93
2022-10-12T22:18:07.320Z,8.97
2022-10-12T22:20:36.933Z,9.02
2022-10-12T22:23:04.768Z,9.08
2022-10-12T22:25:32.397Z,9.05
2022-10-12T22:27:59.959Z,9.10
2022-10-12T22:30:27.598Z,8.94
2022-10-12T22:32:55.133Z,8.87
2022-10-12T22:35:24.322Z,8.88
2022-10-12T22:37:52.057Z,8.87
2022-10-12T22:40:19.616Z,8.70
2022-10-12T22:42:47.232Z,8.71
2022-10-12T22:45:15.061Z,8.79
2022-10-12T22:47:42.694Z,8.56
2022-10-12T22:50:10.686Z,8.56
2022-10-12T22:52:39.634Z,8.47
2022-10-12T22:55:08.260Z,8.38
2022-10-12T22:57:35.953Z,8.60
2022-10-12T23:00:03.547Z,8.54
2022-10-12T23:02:30.997Z,8.52
2022-10-12T23:04:58.444Z,8.63
2022-10-12T23:07:25.914Z,8.63
2022-10-12T23:09:54.786Z,8.57
2022-10-12T23:12:22.656Z,8.69
2022-10-12T23:14:50.129Z,8.47
2022-10-12T23:17:17.585Z,8.38
2022-10-12T23:19:45.092Z,8.02
2022-10-12T23:22:12.544Z,8.18
2022-10-12T23:24:40.576Z,8.27
2022-10-12T23:27:09.395Z,8.33
2022-10-12T23:29:36.937Z,8.29
2022-10-12T23:32:04.986Z,8.34
2022-10-12T23:34:32.527Z,8.19
2022-10-12T23:37:00.039Z,7.82
2022-10-12T23:39:27.557Z,7.86
2022-10-12T23:41:55.020Z,7.98
2022-10-12T23:44:23.852Z,7.97
2022-10-12T23:46:51.328Z,7.93
2022-10-12T23:49:18.973Z,7.92
2022-10-12T23:51:46.433Z,7.87
2022-10-12T23:54:13.880Z,7.86
2022-10-12T23:56:41.375Z,7.99
2022-10-12T23:59:08.842Z,7.76
